TimeCDT,TemperatureF,Dew PointF,Humidity,Sea Level PressureIn,VisibilityMPH,Wind Direction,Wind SpeedMPH,Gust SpeedMPH,PrecipitationIn,Events,Conditions,WindDirDegrees,DateUTC
12:56 AM,46.9,39.9,77,30.12,10.0,North,3.5,-,N/A,,Clear,360,2013-10-24 05:56:00
1:56 AM,46.0,39.9,79,30.12,10.0,North,3.5,-,N/A,,Clear,360,2013-10-24 06:56:00
2:56 AM,46.9,39.0,74,30.12,10.0,NNE,3.5,-,N/A,,Clear,20,2013-10-24 07:56:00
3:56 AM,43.0,39.0,86,30.14,10.0,Calm,Calm,-,N/A,,Clear,0,2013-10-24 08:56:00
4:56 AM,43.0,39.0,86,30.15,10.0,Calm,Calm,-,N/A,,Clear,0,2013-10-24 09:56:00
5:56 AM,41.0,37.9,89,30.17,10.0,Calm,Calm,-,N/A,,Clear,0,2013-10-24 10:56:00
6:56 AM,42.1,37.9,85,30.18,10.0,Calm,Calm,-,N/A,,Clear,0,2013-10-24 11:56:00
7:56 AM,48.0,41.0,77,30.20,10.0,Calm,Calm,-,N/A,,Clear,0,2013-10-24 12:56:00
8:56 AM,52.0,42.1,69,30.22,10.0,SE,6.9,-,N/A,,Clear,130,2013-10-24 13:56:00
9:56 AM,59.0,42.1,53,30.23,10.0,Variable,4.6,-,N/A,,Clear,0,2013-10-24 14:56:00
10:56 AM,64.0,41.0,43,30.22,10.0,East,4.6,-,N/A,,Clear,90,2013-10-24 15:56:00
11:56 AM,66.0,41.0,40,30.19,10.0,Calm,Calm,-,N/A,,Clear,0,2013-10-24 16:56:00
12:56 PM,70.0,42.1,36,30.16,10.0,Variable,4.6,-,N/A,,Clear,0,2013-10-24 17:56:00
1:56 PM,73.0,41.0,31,30.14,10.0,West,6.9,-,N/A,,Clear,260,2013-10-24 18:56:00
2:56 PM,73.9,43.0,33,30.12,10.0,WSW,5.8,-,N/A,,Clear,240,2013-10-24 19:56:00
3:56 PM,75.9,44.1,32,30.12,10.0,West,5.8,-,N/A,,Clear,270,2013-10-24 20:56:00
4:56 PM,73.9,44.1,34,30.12,10.0,Variable,4.6,-,N/A,,Clear,0,2013-10-24 21:56:00
5:56 PM,69.1,46.0,44,30.14,10.0,WNW,3.5,-,N/A,,Clear,300,2013-10-24 22:56:00
6:56 PM,62.1,50.0,65,30.15,10.0,Calm,Calm,-,N/A,,Clear,0,2013-10-24 23:56:00
7:56 PM,62.1,48.9,62,30.18,10.0,NW,4.6,-,N/A,,Clear,310,2013-10-25 00:56:00
8:56 PM,57.0,50.0,77,30.19,10.0,Calm,Calm,-,N/A,,Clear,0,2013-10-25 01:56:00
9:56 PM,54.0,48.9,83,30.20,10.0,Calm,Calm,-,N/A,,Clear,0,2013-10-25 02:56:00
10:56 PM,52.0,48.9,89,30.19,10.0,Calm,Calm,-,N/A,,Clear,0,2013-10-25 03:56:00
11:56 PM,51.1,46.9,86,30.20,10.0,Calm,Calm,-,N/A,,Clear,0,2013-10-25 04:56:00